Time;durP1;ratioP1;P1;durP2;ratioP2;P2;SDS_P1;SDS_P2;PMS_P1;PMS_P2;Temp;Humidity;BMP_temperature;BMP_pressure;BME280_temperature;BME280_humidity;BME280_pressure;Samples;Min_cycle;Max_cycle;Signal;HPM_P1;HPM_P2
2023/05/30 00:01:41;;;;;;;20.83;4.95;;;11.30;99.90;;;;;;5035578;28;20056;-58
2023/05/30 00:04:07;;;;;;;16.08;4.43;;;11.30;99.90;;;;;;5031023;28;20125;-60
2023/05/30 00:06:33;;;;;;;14.10;4.07;;;11.20;99.90;;;;;;5039882;28;20051;-58
2023/05/30 00:09:00;;;;;;;16.55;4.72;;;11.30;99.90;;;;;;5036948;28;20419;-58
2023/05/30 00:11:28;;;;;;;10.07;3.72;;;11.30;99.90;;;;;;5031088;28;20565;-57
2023/05/30 00:13:55;;;;;;;14.52;4.43;;;11.30;99.90;;;;;;5032896;28;20103;-58
2023/05/30 00:16:22;;;;;;;15.18;4.10;;;11.30;99.90;;;;;;5026481;28;20897;-59
2023/05/30 00:18:48;;;;;;;11.70;3.90;;;11.30;99.90;;;;;;5016305;28;20057;-59
2023/05/30 00:21:17;;;;;;;18.48;4.30;;;11.20;99.90;;;;;;5029899;28;20903;-58
2023/05/30 00:23:45;;;;;;;11.52;3.55;;;11.20;99.90;;;;;;5030228;28;20509;-59
2023/05/30 00:26:11;;;;;;;14.45;3.65;;;11.30;99.90;;;;;;5034915;28;20466;-57
2023/05/30 00:28:38;;;;;;;16.73;4.43;;;11.30;99.90;;;;;;5016977;28;20094;-59
2023/05/30 00:31:05;;;;;;;14.00;3.75;;;11.20;99.90;;;;;;5029691;28;20363;-59
2023/05/30 00:33:31;;;;;;;15.98;4.30;;;11.30;99.90;;;;;;5031610;28;20041;-59
2023/05/30 00:35:57;;;;;;;12.40;3.88;;;11.30;99.90;;;;;;5030925;28;20444;-58
2023/05/30 00:38:23;;;;;;;12.43;4.03;;;11.20;99.90;;;;;;5030241;28;20048;-59
2023/05/30 00:40:49;;;;;;;16.35;4.03;;;11.30;99.90;;;;;;5033143;28;20493;-59
2023/05/30 00:43:18;;;;;;;15.05;3.88;;;11.30;99.90;;;;;;5032464;28;20098;-57
2023/05/30 00:45:45;;;;;;;15.15;3.83;;;11.20;99.90;;;;;;5007351;28;20094;-59
2023/05/30 00:48:12;;;;;;;16.73;4.50;;;11.10;99.90;;;;;;5007849;28;20053;-59
2023/05/30 00:50:39;;;;;;;10.18;3.38;;;11.20;99.90;;;;;;5025742;28;20128;-59
2023/05/30 00:53:05;;;;;;;13.07;3.40;;;11.20;99.90;;;;;;5034693;28;20095;-58
2023/05/30 00:55:32;;;;;;;13.18;3.90;;;11.20;99.90;;;;;;5034324;28;20044;-59
2023/05/30 00:57:58;;;;;;;15.73;3.63;;;11.20;99.90;;;;;;5029236;28;20037;-58
2023/05/30 01:00:26;;;;;;;19.38;4.65;;;11.20;99.90;;;;;;5027182;28;20726;-58
2023/05/30 01:02:57;;;;;;;12.82;3.95;;;11.20;99.90;;;;;;5029155;28;20497;-58
2023/05/30 01:05:24;;;;;;;15.35;4.10;;;11.20;99.90;;;;;;5033880;28;20045;-60
2023/05/30 01:07:51;;;;;;;13.30;3.80;;;11.20;99.90;;;;;;5011424;28;20735;-58
2023/05/30 01:10:17;;;;;;;11.50;3.70;;;11.20;99.90;;;;;;5025409;28;20512;-59
2023/05/30 01:13:09;;;;;;;11.45;3.92;;;11.20;99.90;;;;;;5029527;28;20036;-58
2023/05/30 01:16:03;;;;;;;14.52;4.10;;;11.20;99.90;;;;;;5031143;28;20045;-58
2023/05/30 01:18:39;;;;;;;16.90;4.95;;;11.20;99.90;;;;;;5036889;28;20037;-58
2023/05/30 01:21:10;;;;;;;15.30;4.07;;;11.20;99.90;;;;;;5032145;28;20044;-58
2023/05/30 01:23:55;;;;;;;16.00;4.15;;;11.20;99.90;;;;;;5029090;28;20036;-58
2023/05/30 01:26:42;;;;;;;15.13;4.28;;;11.20;99.90;;;;;;5030322;28;20413;-59
2023/05/30 01:29:14;;;;;;;18.33;4.32;;;11.20;99.90;;;;;;5007095;28;20482;-58
2023/05/30 01:31:41;;;;;;;10.85;4.10;;;11.20;99.90;;;;;;5030773;28;20137;-59
2023/05/30 01:34:07;;;;;;;15.75;4.10;;;11.20;99.90;;;;;;5025551;28;20048;-59
2023/05/30 01:36:33;;;;;;;14.60;4.07;;;11.20;99.90;;;;;;5028064;28;20536;-60
2023/05/30 01:38:59;;;;;;;13.73;3.80;;;11.20;99.90;;;;;;5024220;28;20045;-58
2023/05/30 01:41:36;;;;;;;18.52;4.18;;;11.20;99.90;;;;;;5033513;28;20413;-59
2023/05/30 01:44:10;;;;;;;14.95;3.92;;;11.20;99.90;;;;;;5031053;28;20051;-59
2023/05/30 01:46:39;;;;;;;13.68;4.15;;;11.20;99.90;;;;;;5035748;28;20052;-59
2023/05/30 01:49:27;;;;;;;15.02;4.55;;;11.20;99.90;;;;;;5033326;28;20045;-58
2023/05/30 01:51:59;;;;;;;13.73;4.55;;;11.20;99.90;;;;;;5034915;28;20133;-58
2023/05/30 01:54:28;;;;;;;22.88;4.05;;;11.20;99.90;;;;;;5050064;28;20053;-58
2023/05/30 01:57:01;;;;;;;15.25;4.45;;;11.20;99.90;;;;;;5024264;28;21306;-58
2023/05/30 01:59:27;;;;;;;13.80;4.30;;;11.20;99.90;;;;;;5023849;28;20036;-60
2023/05/30 02:01:56;;;;;;;14.20;4.45;;;11.20;99.90;;;;;;5035443;28;20461;-59
2023/05/30 02:04:24;;;;;;;13.73;3.90;;;11.20;99.90;;;;;;5048963;28;20458;-58
2023/05/30 02:06:49;;;;;;;12.40;4.50;;;11.20;99.90;;;;;;5034174;28;20079;-58
2023/05/30 02:09:15;;;;;;;17.23;4.88;;;11.20;99.90;;;;;;5033312;28;20128;-60
2023/05/30 02:11:41;;;;;;;13.55;4.53;;;11.20;99.90;;;;;;5029459;28;20060;-59
2023/05/30 02:14:07;;;;;;;20.45;4.30;;;11.20;99.90;;;;;;5037238;28;20037;-58
2023/05/30 02:16:33;;;;;;;20.77;4.75;;;11.20;99.90;;;;;;5035561;28;20485;-58
2023/05/30 02:19:00;;;;;;;16.17;4.68;;;11.20;99.90;;;;;;5036986;28;20051;-58
2023/05/30 02:21:25;;;;;;;16.35;5.32;;;11.20;99.90;;;;;;5038990;28;20053;-59
2023/05/30 02:23:51;;;;;;;12.68;4.03;;;11.20;99.90;;;;;;5033462;28;20064;-57
2023/05/30 02:26:17;;;;;;;14.88;4.93;;;11.20;99.90;;;;;;5035860;28;20128;-58
2023/05/30 02:28:43;;;;;;;22.65;5.00;;;11.20;99.90;;;;;;5016931;28;20056;-58
2023/05/30 02:31:09;;;;;;;13.57;4.35;;;11.20;99.90;;;;;;5029287;28;20041;-58
2023/05/30 02:33:34;;;;;;;19.60;4.32;;;11.20;99.90;;;;;;5030578;28;20077;-58
2023/05/30 02:36:00;;;;;;;13.35;4.85;;;11.20;99.90;;;;;;5028224;28;20042;-59
2023/05/30 02:38:26;;;;;;;16.90;4.95;;;11.20;99.90;;;;;;5027641;28;20063;-58
2023/05/30 02:40:51;;;;;;;14.98;4.32;;;11.20;99.90;;;;;;5037025;28;20059;-58
2023/05/30 02:43:18;;;;;;;15.65;4.50;;;11.20;99.90;;;;;;5031224;28;20525;-58
2023/05/30 02:45:43;;;;;;;17.70;4.93;;;11.20;99.90;;;;;;5033985;28;20033;-60
2023/05/30 02:48:09;;;;;;;16.13;4.63;;;11.20;99.90;;;;;;5008995;28;20417;-59
2023/05/30 02:50:35;;;;;;;14.68;4.60;;;11.20;99.90;;;;;;5032044;28;20091;-58
2023/05/30 02:53:01;;;;;;;15.90;4.45;;;11.20;99.90;;;;;;5034682;28;20501;-59
2023/05/30 02:55:27;;;;;;;13.07;4.25;;;11.10;99.90;;;;;;5034885;28;20055;-58
2023/05/30 02:57:52;;;;;;;20.63;5.00;;;11.10;99.90;;;;;;5036024;28;20044;-57
2023/05/30 03:00:20;;;;;;;13.65;4.38;;;11.10;99.90;;;;;;5035456;28;20045;-58
2023/05/30 03:02:46;;;;;;;17.95;4.57;;;11.10;99.90;;;;;;5028807;28;20064;-59
2023/05/30 03:05:12;;;;;;;22.65;5.00;;;11.10;99.90;;;;;;5030803;28;20072;-58
2023/05/30 03:07:38;;;;;;;18.55;5.07;;;11.10;99.90;;;;;;5029920;28;20041;-58
2023/05/30 03:10:04;;;;;;;14.48;4.97;;;11.10;99.90;;;;;;5033644;28;20110;-58
2023/05/30 03:12:30;;;;;;;18.73;4.70;;;11.10;99.90;;;;;;5029879;28;20080;-57
2023/05/30 03:14:56;;;;;;;20.15;5.25;;;11.10;99.90;;;;;;5034160;28;20191;-58
2023/05/30 03:17:22;;;;;;;16.55;5.07;;;11.10;99.90;;;;;;5028134;28;20485;-59
2023/05/30 03:19:48;;;;;;;17.88;4.63;;;11.10;99.90;;;;;;5032581;28;20470;-60
2023/05/30 03:22:14;;;;;;;12.20;5.38;;;11.10;99.90;;;;;;5028592;28;20187;-58
2023/05/30 03:24:40;;;;;;;16.15;4.65;;;11.10;99.90;;;;;;5034979;28;20028;-58
2023/05/30 03:27:07;;;;;;;17.13;4.50;;;11.10;99.90;;;;;;5032434;28;20051;-58
2023/05/30 03:29:33;;;;;;;16.60;4.78;;;11.10;99.90;;;;;;5037213;28;20049;-58
2023/05/30 03:31:59;;;;;;;18.05;4.75;;;11.10;99.90;;;;;;5037661;28;20132;-58
2023/05/30 03:34:25;;;;;;;24.58;5.15;;;11.10;99.90;;;;;;5034627;28;20040;-58
2023/05/30 03:36:52;;;;;;;13.38;4.97;;;11.10;99.90;;;;;;5036210;28;20041;-59
2023/05/30 03:39:21;;;;;;;15.27;4.82;;;11.10;99.90;;;;;;5033252;28;20037;-58
2023/05/30 03:41:47;;;;;;;22.67;4.90;;;11.20;99.90;;;;;;5038049;28;20227;-59
2023/05/30 03:44:13;;;;;;;17.73;4.80;;;11.20;99.90;;;;;;5041257;28;20069;-59
2023/05/30 03:46:39;;;;;;;19.65;4.75;;;11.20;99.90;;;;;;5041139;28;20608;-58
2023/05/30 03:49:05;;;;;;;14.30;4.40;;;11.20;99.90;;;;;;5033269;28;20037;-58
2023/05/30 03:51:36;;;;;;;13.77;4.65;;;11.20;99.90;;;;;;5018393;28;20406;-60
2023/05/30 03:54:01;;;;;;;17.70;4.82;;;11.20;99.90;;;;;;5031545;28;20053;-59
2023/05/30 03:56:27;;;;;;;21.45;4.55;;;11.30;99.90;;;;;;5036437;28;20056;-59
2023/05/30 03:58:53;;;;;;;19.17;4.65;;;11.20;99.90;;;;;;5030514;28;20083;-59
2023/05/30 04:01:19;;;;;;;16.95;4.78;;;11.30;99.90;;;;;;5034809;28;20740;-58
2023/05/30 04:03:45;;;;;;;14.60;4.57;;;11.30;99.90;;;;;;5015859;28;20044;-58
2023/05/30 04:06:11;;;;;;;16.25;4.32;;;11.30;99.90;;;;;;5029035;28;20044;-58
2023/05/30 04:08:37;;;;;;;16.90;4.75;;;11.30;99.90;;;;;;5033723;28;20044;-59
2023/05/30 04:11:04;;;;;;;17.55;4.45;;;11.30;99.90;;;;;;5034044;28;20049;-60
2023/05/30 04:13:29;;;;;;;15.55;4.68;;;11.30;99.90;;;;;;5039341;28;20040;-58
2023/05/30 04:15:55;;;;;;;15.45;4.88;;;11.40;99.90;;;;;;5029058;28;20041;-59
2023/05/30 04:18:21;;;;;;;14.13;4.78;;;11.40;99.90;;;;;;5037597;28;20072;-57
2023/05/30 04:20:46;;;;;;;11.10;4.55;;;11.40;99.90;;;;;;5034516;28;20052;-58
2023/05/30 04:23:12;;;;;;;18.88;4.90;;;11.40;99.90;;;;;;5033088;28;20044;-59
2023/05/30 04:25:38;;;;;;;10.52;4.63;;;11.40;99.90;;;;;;5038440;28;21520;-58
2023/05/30 04:28:05;;;;;;;16.75;4.93;;;11.40;99.90;;;;;;5035293;28;20033;-57
2023/05/30 04:30:33;;;;;;;16.73;4.50;;;11.40;99.90;;;;;;5034494;28;20033;-59
2023/05/30 04:32:59;;;;;;;17.48;4.93;;;11.40;99.90;;;;;;5034431;28;20073;-58
2023/05/30 04:35:25;;;;;;;18.90;5.13;;;11.40;99.90;;;;;;5035297;28;20077;-58
2023/05/30 04:37:53;;;;;;;18.70;5.68;;;11.50;99.90;;;;;;5029324;28;20465;-58
2023/05/30 04:40:19;;;;;;;14.70;4.63;;;11.50;99.90;;;;;;5039432;28;20049;-58
2023/05/30 04:42:51;;;;;;;13.00;4.35;;;11.50;99.90;;;;;;5029470;28;20073;-58
2023/05/30 04:45:18;;;;;;;8.88;3.70;;;11.50;99.90;;;;;;5029513;28;20077;-59
2023/05/30 04:47:46;;;;;;;15.88;4.45;;;11.50;99.90;;;;;;5030801;28;20049;-58
2023/05/30 04:50:15;;;;;;;18.02;4.72;;;11.50;99.90;;;;;;5036182;28;20105;-59
2023/05/30 04:52:44;;;;;;;17.83;4.97;;;11.50;99.90;;;;;;5021063;28;20055;-60
2023/05/30 04:55:10;;;;;;;16.20;4.88;;;11.50;99.90;;;;;;5037016;28;20048;-60
2023/05/30 04:57:39;;;;;;;15.43;4.72;;;11.60;99.90;;;;;;5035551;28;20391;-60
2023/05/30 05:00:24;;;;;;;11.85;4.15;;;11.60;99.90;;;;;;5030507;28;20471;-59
2023/05/30 05:02:51;;;;;;;13.73;3.95;;;11.60;99.90;;;;;;5030187;28;20124;-59
2023/05/30 05:05:16;;;;;;;17.42;4.43;;;11.60;99.90;;;;;;5027633;28;20899;-59
2023/05/30 05:07:42;;;;;;;16.40;4.50;;;11.60;99.90;;;;;;5032384;28;20036;-58
2023/05/30 05:10:09;;;;;;;14.63;3.67;;;11.60;99.90;;;;;;5030903;28;20048;-58
2023/05/30 05:12:35;;;;;;;9.65;3.80;;;11.60;99.90;;;;;;5017932;28;20569;-59
2023/05/30 05:15:00;;;;;;;13.60;3.30;;;11.60;99.90;;;;;;5033707;28;20040;-58
2023/05/30 05:17:26;;;;;;;10.68;3.08;;;11.60;99.90;;;;;;5021883;28;20042;-58
2023/05/30 05:19:52;;;;;;;11.43;3.50;;;11.60;99.90;;;;;;5031574;28;20068;-60
2023/05/30 05:22:17;;;;;;;9.48;3.20;;;11.60;99.90;;;;;;5022266;28;20114;-59
2023/05/30 05:24:44;;;;;;;11.15;3.58;;;11.70;99.90;;;;;;5029115;28;20179;-58
2023/05/30 05:27:10;;;;;;;10.20;3.85;;;11.70;99.90;;;;;;5032908;28;20064;-59
2023/05/30 05:29:36;;;;;;;9.32;3.30;;;11.70;99.90;;;;;;5033050;28;20124;-58
2023/05/30 05:32:02;;;;;;;11.85;3.95;;;11.70;99.90;;;;;;5028414;28;20825;-59
2023/05/30 05:34:27;;;;;;;15.35;4.47;;;11.70;99.90;;;;;;5025382;28;20604;-59
2023/05/30 05:36:53;;;;;;;15.75;4.00;;;11.70;99.90;;;;;;5019543;28;20132;-58
2023/05/30 05:39:20;;;;;;;12.50;4.05;;;11.70;99.90;;;;;;5031164;28;20493;-59
2023/05/30 05:41:45;;;;;;;12.23;3.38;;;11.70;99.90;;;;;;5038366;28;20092;-59
2023/05/30 05:44:11;;;;;;;15.20;3.85;;;11.80;99.90;;;;;;5023160;28;20045;-58
2023/05/30 05:46:37;;;;;;;13.95;3.88;;;11.80;99.90;;;;;;5033231;28;20171;-59
2023/05/30 05:49:02;;;;;;;11.13;3.53;;;11.80;99.90;;;;;;5031599;28;20168;-58
2023/05/30 05:51:29;;;;;;;15.48;3.60;;;11.80;99.90;;;;;;5030295;28;20032;-58
2023/05/30 05:53:55;;;;;;;11.85;3.15;;;11.80;99.90;;;;;;5033782;28;20083;-59
2023/05/30 05:56:21;;;;;;;11.65;3.55;;;11.80;99.90;;;;;;5029741;28;20120;-58
2023/05/30 05:58:47;;;;;;;13.43;3.45;;;11.80;99.90;;;;;;5026614;28;20932;-59
2023/05/30 06:01:13;;;;;;;8.70;3.15;;;11.80;99.90;;;;;;5039068;28;20053;-58
2023/05/30 06:03:39;;;;;;;13.52;3.67;;;11.80;99.90;;;;;;5033396;28;20120;-59
2023/05/30 06:06:05;;;;;;;7.10;3.25;;;11.90;99.90;;;;;;5029802;28;20044;-59
2023/05/30 06:08:30;;;;;;;10.35;3.15;;;11.90;99.90;;;;;;5020345;28;20044;-59
2023/05/30 06:10:56;;;;;;;5.63;2.50;;;11.90;99.90;;;;;;5027117;28;20054;-61
2023/05/30 06:13:22;;;;;;;12.55;3.20;;;11.90;99.90;;;;;;5032214;28;20053;-60
2023/05/30 06:15:47;;;;;;;9.48;2.50;;;11.90;99.90;;;;;;5025859;28;20041;-61
2023/05/30 06:18:13;;;;;;;10.80;3.10;;;12.00;99.90;;;;;;5025788;28;20096;-60
2023/05/30 06:20:39;;;;;;;8.07;2.75;;;12.00;99.90;;;;;;5042981;28;20506;-60
2023/05/30 06:23:05;;;;;;;6.13;2.40;;;12.00;99.90;;;;;;5046528;28;20109;-60
2023/05/30 06:25:31;;;;;;;12.35;2.70;;;12.00;99.90;;;;;;5041191;28;20041;-60
2023/05/30 06:27:56;;;;;;;12.20;3.05;;;12.00;99.90;;;;;;5039403;28;20044;-60
2023/05/30 06:30:23;;;;;;;13.27;3.30;;;11.90;99.90;;;;;;5040685;28;20079;-61
2023/05/30 06:32:49;;;;;;;9.50;3.13;;;12.00;99.90;;;;;;5047321;28;20397;-60
2023/05/30 06:35:15;;;;;;;11.07;2.72;;;12.00;99.90;;;;;;5043462;28;20040;-60
2023/05/30 06:37:41;;;;;;;12.75;3.70;;;12.00;99.90;;;;;;5043591;28;20041;-61
2023/05/30 06:40:08;;;;;;;4.85;2.55;;;12.10;99.90;;;;;;5032067;28;20032;-61
2023/05/30 06:42:34;;;;;;;7.53;3.28;;;12.10;99.90;;;;;;5043448;28;20068;-60
2023/05/30 06:45:00;;;;;;;5.82;2.60;;;12.10;99.90;;;;;;5041903;28;20048;-60
2023/05/30 06:47:26;;;;;;;6.70;2.65;;;12.10;99.90;;;;;;5045858;28;20439;-60
2023/05/30 06:49:52;;;;;;;8.02;2.67;;;12.20;99.90;;;;;;5032119;28;20045;-61
2023/05/30 06:52:17;;;;;;;7.72;2.45;;;12.20;99.90;;;;;;5036558;28;20060;-61
2023/05/30 06:54:43;;;;;;;7.38;2.85;;;12.20;99.90;;;;;;5009011;28;20052;-61
2023/05/30 06:57:09;;;;;;;9.88;2.50;;;12.20;99.90;;;;;;5037107;28;20119;-61
2023/05/30 06:59:35;;;;;;;7.57;3.13;;;12.20;99.90;;;;;;5043319;28;20037;-61
2023/05/30 07:02:01;;;;;;;9.60;3.05;;;12.20;99.90;;;;;;5038803;28;20068;-61
2023/05/30 07:04:27;;;;;;;6.13;2.78;;;12.20;99.90;;;;;;5041235;28;20053;-61
2023/05/30 07:06:53;;;;;;;10.45;3.10;;;12.20;99.90;;;;;;5039917;28;20036;-60
2023/05/30 07:09:19;;;;;;;9.27;3.03;;;12.20;99.90;;;;;;5038957;28;20105;-60
2023/05/30 07:11:45;;;;;;;13.75;2.80;;;12.20;99.90;;;;;;5049350;28;20447;-61
2023/05/30 07:14:11;;;;;;;5.63;2.55;;;12.30;99.90;;;;;;5023292;28;20055;-61
2023/05/30 07:16:37;;;;;;;7.82;2.42;;;12.30;99.90;;;;;;5032649;28;20056;-60
2023/05/30 07:19:03;;;;;;;7.03;2.95;;;12.30;99.90;;;;;;5025996;28;20041;-61
2023/05/30 07:21:29;;;;;;;8.05;2.60;;;12.30;99.90;;;;;;5038257;28;20519;-61
2023/05/30 07:23:55;;;;;;;6.40;2.40;;;12.30;99.90;;;;;;5032604;28;20052;-61
2023/05/30 07:26:22;;;;;;;7.32;2.30;;;12.40;99.90;;;;;;5042721;28;20963;-61
2023/05/30 07:28:48;;;;;;;6.43;2.15;;;12.40;99.90;;;;;;5036737;28;20135;-61
2023/05/30 07:31:15;;;;;;;7.40;2.42;;;12.40;99.90;;;;;;5005353;28;20120;-61
2023/05/30 07:33:40;;;;;;;5.07;2.15;;;12.50;99.90;;;;;;5034600;28;20041;-60
2023/05/30 07:36:07;;;;;;;3.95;2.00;;;12.50;99.90;;;;;;5039741;28;20063;-61
2023/05/30 07:38:33;;;;;;;8.85;2.47;;;12.50;99.90;;;;;;5034743;28;20746;-61
2023/05/30 07:40:59;;;;;;;6.63;2.72;;;12.50;99.90;;;;;;5033410;28;20473;-61
2023/05/30 07:43:24;;;;;;;4.45;2.17;;;12.50;99.90;;;;;;5037229;28;20051;-60
2023/05/30 07:45:50;;;;;;;5.03;1.98;;;12.50;99.90;;;;;;5034781;28;20131;-61
2023/05/30 07:48:16;;;;;;;6.18;2.28;;;12.60;99.90;;;;;;5034933;28;20045;-60
2023/05/30 07:50:42;;;;;;;5.22;2.00;;;12.70;99.90;;;;;;5042006;28;20033;-61
2023/05/30 07:53:07;;;;;;;5.20;2.13;;;12.70;99.90;;;;;;5033871;28;20033;-60
2023/05/30 07:55:33;;;;;;;5.68;2.00;;;12.80;99.90;;;;;;5019641;28;20037;-61
2023/05/30 07:57:59;;;;;;;7.05;2.47;;;12.80;99.90;;;;;;5039752;28;20085;-61
2023/05/30 08:00:25;;;;;;;5.07;2.58;;;12.80;99.90;;;;;;5040545;28;20054;-61
2023/05/30 08:02:50;;;;;;;8.18;2.95;;;12.80;99.90;;;;;;5036213;28;20049;-61
2023/05/30 08:05:16;;;;;;;6.25;2.47;;;12.70;99.90;;;;;;5035276;28;20083;-60
2023/05/30 08:07:42;;;;;;;10.48;3.45;;;12.70;99.90;;;;;;5036282;28;20140;-61
2023/05/30 08:10:08;;;;;;;5.22;2.30;;;12.70;99.90;;;;;;5032990;28;20579;-61
2023/05/30 08:12:34;;;;;;;5.78;2.50;;;12.70;99.90;;;;;;5039853;28;20049;-61
2023/05/30 08:15:00;;;;;;;7.20;2.70;;;12.70;99.90;;;;;;5037301;28;20045;-60
2023/05/30 08:17:27;;;;;;;4.10;2.13;;;12.70;99.90;;;;;;5020648;28;20052;-61
2023/05/30 08:19:55;;;;;;;3.58;1.75;;;12.80;99.90;;;;;;5035230;28;20042;-58
2023/05/30 08:22:22;;;;;;;6.15;1.90;;;12.90;99.90;;;;;;5037007;28;20049;-60
2023/05/30 08:24:53;;;;;;;4.55;1.73;;;13.00;99.90;;;;;;5036470;28;20052;-60
2023/05/30 08:27:20;;;;;;;4.10;1.63;;;13.30;99.90;;;;;;5030059;28;20053;-60
2023/05/30 08:29:48;;;;;;;5.32;1.30;;;13.50;99.90;;;;;;5029204;28;20044;-61
2023/05/30 08:32:14;;;;;;;2.50;1.27;;;13.60;99.90;;;;;;5036127;28;20154;-61
2023/05/30 08:34:40;;;;;;;2.92;1.20;;;13.80;99.90;;;;;;5037832;28;20151;-60
2023/05/30 08:37:06;;;;;;;1.73;1.10;;;13.90;99.90;;;;;;5041389;28;20040;-61
2023/05/30 08:39:33;;;;;;;0.75;0.75;;;14.00;99.90;;;;;;5033473;28;20401;-61
2023/05/30 08:42:00;;;;;;;0.70;0.68;;;14.00;99.90;;;;;;5037354;28;20056;-59
2023/05/30 08:44:29;;;;;;;0.82;0.70;;;14.00;99.90;;;;;;5036686;28;20040;-60
2023/05/30 08:46:57;;;;;;;2.13;0.98;;;14.00;99.90;;;;;;5040062;28;20048;-61
2023/05/30 08:49:23;;;;;;;2.95;0.90;;;14.00;99.90;;;;;;5039143;28;20036;-61
2023/05/30 08:51:50;;;;;;;1.98;0.85;;;14.10;99.90;;;;;;5041229;28;20184;-61
2023/05/30 08:54:23;;;;;;;1.20;0.90;;;14.10;99.90;;;;;;5036756;28;20048;-61
2023/05/30 08:57:04;;;;;;;1.42;0.73;;;14.10;99.90;;;;;;5041556;28;20171;-61
2023/05/30 08:59:31;;;;;;;2.08;0.85;;;14.10;99.90;;;;;;5041639;28;20432;-61
2023/05/30 09:01:58;;;;;;;1.52;0.90;;;14.20;99.90;;;;;;5051261;28;20056;-61
2023/05/30 09:04:24;;;;;;;1.20;0.70;;;14.20;99.90;;;;;;5038030;28;20049;-61
2023/05/30 09:06:52;;;;;;;2.60;0.70;;;14.20;99.90;;;;;;5041767;28;20489;-60
2023/05/30 09:09:19;;;;;;;0.90;0.73;;;14.30;99.90;;;;;;5037595;28;20192;-61
2023/05/30 09:11:45;;;;;;;1.00;0.70;;;14.40;99.90;;;;;;5036525;28;20308;-60
2023/05/30 09:14:11;;;;;;;1.52;0.70;;;14.50;99.90;;;;;;5037207;28;20037;-61
2023/05/30 09:16:37;;;;;;;0.70;0.60;;;14.50;99.90;;;;;;5034608;28;20106;-60
2023/05/30 09:19:03;;;;;;;2.28;0.70;;;14.40;99.90;;;;;;5042893;28;20099;-61
2023/05/30 09:21:31;;;;;;;2.53;0.65;;;14.30;99.90;;;;;;5037994;28;21172;-60
2023/05/30 09:24:03;;;;;;;1.20;0.60;;;14.20;99.90;;;;;;5039784;28;20063;-61
2023/05/30 09:26:29;;;;;;;1.40;0.70;;;14.10;99.90;;;;;;5037341;28;20045;-60
2023/05/30 09:28:54;;;;;;;1.48;0.75;;;14.00;99.90;;;;;;5035351;28;20179;-61
2023/05/30 09:31:22;;;;;;;2.97;0.90;;;13.90;99.90;;;;;;5029447;28;20056;-61
2023/05/30 09:33:52;;;;;;;1.55;0.70;;;13.80;99.90;;;;;;5037501;28;20053;-61
2023/05/30 09:36:26;;;;;;;1.20;0.70;;;13.80;99.90;;;;;;5035647;28;20036;-60
2023/05/30 09:38:54;;;;;;;1.20;0.80;;;13.70;99.90;;;;;;5034651;28;20101;-61
2023/05/30 09:41:20;;;;;;;1.85;0.80;;;13.80;99.90;;;;;;5035510;28;20049;-61
2023/05/30 09:43:52;;;;;;;1.98;1.20;;;13.80;99.90;;;;;;5036110;28;20049;-61
2023/05/30 09:46:19;;;;;;;1.80;1.00;;;13.80;99.90;;;;;;5037370;28;20174;-61
2023/05/30 09:48:46;;;;;;;1.70;0.90;;;13.90;99.90;;;;;;5041063;28;20543;-60
2023/05/30 09:51:11;;;;;;;3.15;1.15;;;14.00;99.90;;;;;;5037210;28;20165;-61
2023/05/30 09:53:37;;;;;;;2.22;1.00;;;14.20;99.90;;;;;;5039634;28;20025;-61
2023/05/30 09:56:03;;;;;;;3.28;1.10;;;14.40;99.90;;;;;;5037270;28;20051;-61
2023/05/30 09:58:29;;;;;;;1.52;0.90;;;14.50;99.90;;;;;;5034710;28;20127;-61
2023/05/30 10:00:57;;;;;;;1.73;0.70;;;14.50;99.90;;;;;;5037475;28;20057;-61
2023/05/30 10:03:43;;;;;;;2.25;0.80;;;14.40;99.90;;;;;;5031529;28;20080;-60
2023/05/30 10:06:15;;;;;;;2.15;0.80;;;14.30;99.90;;;;;;5035550;28;20045;-61
2023/05/30 10:08:44;;;;;;;3.58;1.00;;;14.20;99.90;;;;;;5039595;28;20512;-62
2023/05/30 10:11:11;;;;;;;1.25;0.80;;;14.20;99.90;;;;;;5032405;28;20363;-61
2023/05/30 10:13:38;;;;;;;3.97;0.90;;;14.10;99.90;;;;;;5035079;28;20036;-61
2023/05/30 10:16:19;;;;;;;1.05;0.95;;;14.20;99.90;;;;;;5033242;28;20095;-61
2023/05/30 10:18:53;;;;;;;1.35;0.90;;;14.20;99.90;;;;;;5036324;28;20041;-61
2023/05/30 10:21:22;;;;;;;3.85;1.10;;;14.20;99.90;;;;;;5034146;28;20063;-61
2023/05/30 10:23:49;;;;;;;1.70;1.10;;;14.30;99.90;;;;;;5018914;28;20486;-60
2023/05/30 10:26:16;;;;;;;1.50;1.15;;;14.40;99.90;;;;;;5035796;28;20071;-60
2023/05/30 10:28:46;;;;;;;1.65;1.33;;;14.40;99.90;;;;;;5025000;28;20395;-61
2023/05/30 10:31:12;;;;;;;4.32;1.35;;;14.50;99.90;;;;;;5035447;28;20061;-61
2023/05/30 10:33:41;;;;;;;4.47;1.38;;;14.60;99.90;;;;;;5023072;28;20149;-60
2023/05/30 10:36:08;;;;;;;4.00;1.40;;;14.70;99.90;;;;;;5029256;28;20057;-61
2023/05/30 10:38:44;;;;;;;2.70;1.40;;;14.80;99.90;;;;;;5020068;28;20049;-61
2023/05/30 10:41:32;;;;;;;2.35;1.20;;;14.90;99.90;;;;;;5034780;28;20053;-60
2023/05/30 10:44:16;;;;;;;2.35;1.00;;;14.90;99.90;;;;;;5035715;28;20088;-59
2023/05/30 10:46:45;;;;;;;3.53;1.17;;;14.90;99.90;;;;;;5049627;28;20094;-61
2023/05/30 10:49:18;;;;;;;3.25;1.33;;;14.90;99.90;;;;;;5036402;28;20052;-62
2023/05/30 10:52:10;;;;;;;4.63;1.25;;;14.90;99.90;;;;;;5038518;28;20049;-61
2023/05/30 10:54:37;;;;;;;1.67;1.30;;;14.80;99.90;;;;;;5031405;28;20060;-60
2023/05/30 10:57:32;;;;;;;2.25;1.40;;;14.80;99.90;;;;;;5039738;28;20048;-61
2023/05/30 11:00:16;;;;;;;3.03;1.30;;;14.70;99.90;;;;;;5026371;28;20139;-61
2023/05/30 11:02:43;;;;;;;2.80;1.60;;;14.70;99.90;;;;;;5030919;28;20052;-62
2023/05/30 11:05:10;;;;;;;4.40;1.10;;;14.60;99.90;;;;;;5037400;28;20036;-61
2023/05/30 11:07:38;;;;;;;3.75;1.50;;;14.60;99.90;;;;;;5037515;28;20048;-61
2023/05/30 11:10:14;;;;;;;1.60;1.30;;;14.60;99.90;;;;;;5035271;28;20068;-61
2023/05/30 11:12:45;;;;;;;2.85;1.30;;;14.60;99.90;;;;;;5034293;28;20045;-61
2023/05/30 11:15:29;;;;;;;1.92;1.42;;;14.60;99.90;;;;;;5037950;28;20563;-61
2023/05/30 11:17:55;;;;;;;2.17;1.40;;;14.70;99.90;;;;;;5036905;28;20072;-62
2023/05/30 11:20:22;;;;;;;2.90;1.42;;;14.80;99.90;;;;;;5027975;28;20383;-62
2023/05/30 11:23:03;;;;;;;4.25;1.42;;;14.90;99.90;;;;;;5035123;28;20152;-62
2023/05/30 11:25:33;;;;;;;1.60;1.50;;;15.00;99.90;;;;;;5040143;28;20049;-62
2023/05/30 11:28:05;;;;;;;1.70;1.20;;;15.10;99.90;;;;;;5039541;28;20439;-61
2023/05/30 11:30:32;;;;;;;1.95;1.55;;;15.20;99.90;;;;;;5034800;28;20069;-62
2023/05/30 11:32:59;;;;;;;1.63;1.10;;;15.20;99.90;;;;;;5034608;28;20049;-61
2023/05/30 11:35:28;;;;;;;1.85;1.25;;;15.10;99.90;;;;;;5035209;28;20049;-61
2023/05/30 11:37:55;;;;;;;1.38;1.27;;;15.10;99.90;;;;;;5033958;28;20072;-61
2023/05/30 11:40:24;;;;;;;1.83;1.08;;;15.00;99.90;;;;;;5037471;28;20342;-61
2023/05/30 11:42:54;;;;;;;3.13;1.40;;;15.00;99.90;;;;;;5040251;28;20038;-61
2023/05/30 11:45:24;;;;;;;1.30;1.20;;;15.00;99.90;;;;;;5026321;28;20096;-62
2023/05/30 11:47:50;;;;;;;1.30;1.20;;;15.10;99.90;;;;;;5034790;28;20032;-61
2023/05/30 11:50:15;;;;;;;1.40;1.02;;;15.10;99.90;;;;;;5034671;28;20389;-61
2023/05/30 11:52:42;;;;;;;1.58;1.38;;;15.10;99.90;;;;;;5039236;28;20048;-61
2023/05/30 11:55:08;;;;;;;1.30;1.10;;;15.10;99.90;;;;;;5038610;28;20052;-61
2023/05/30 11:57:35;;;;;;;1.52;1.10;;;15.10;99.90;;;;;;5039296;28;20040;-62
2023/05/30 12:00:00;;;;;;;5.18;1.38;;;15.30;99.90;;;;;;5039851;28;20051;-62
2023/05/30 12:02:30;;;;;;;2.40;1.30;;;15.40;99.90;;;;;;5035349;28;20036;-61
2023/05/30 12:05:01;;;;;;;2.80;1.40;;;15.50;99.90;;;;;;5039602;28;20122;-61
2023/05/30 12:07:27;;;;;;;2.33;1.10;;;15.50;99.90;;;;;;5043132;28;20033;-62
2023/05/30 12:09:53;;;;;;;2.47;1.13;;;15.40;99.90;;;;;;5045907;28;20495;-61
2023/05/30 12:12:20;;;;;;;2.50;1.10;;;15.40;99.90;;;;;;5046779;28;20065;-62
2023/05/30 12:14:46;;;;;;;1.77;1.05;;;15.40;99.90;;;;;;5037565;28;20036;-62
2023/05/30 12:17:24;;;;;;;3.17;1.27;;;15.50;99.90;;;;;;5042172;28;20771;-62
2023/05/30 12:20:06;;;;;;;1.83;1.10;;;15.60;99.90;;;;;;5041969;28;20041;-61
2023/05/30 12:22:32;;;;;;;1.52;1.30;;;15.50;99.90;;;;;;5040463;28;20053;-62
2023/05/30 12:24:58;;;;;;;2.58;1.40;;;15.50;99.90;;;;;;5030055;28;20056;-69
2023/05/30 12:27:26;;;;;;;2.30;1.58;;;15.50;99.90;;;;;;5011117;28;20083;-70
2023/05/30 12:29:52;;;;;;;2.92;1.42;;;15.50;99.90;;;;;;5021651;28;20066;-69
2023/05/30 12:32:26;;;;;;;1.50;1.40;;;15.40;99.90;;;;;;5021713;28;20417;-69
2023/05/30 12:34:54;;;;;;;1.70;1.60;;;15.40;99.90;;;;;;5035978;28;20116;-69
2023/05/30 12:37:20;;;;;;;3.08;1.73;;;15.40;99.90;;;;;;5026934;28;20037;-69
2023/05/30 12:39:46;;;;;;;1.70;1.60;;;15.30;99.90;;;;;;5019900;28;20041;-70
2023/05/30 12:42:11;;;;;;;3.75;1.58;;;15.40;99.90;;;;;;5038041;28;20076;-62
2023/05/30 12:45:04;;;;;;;2.88;1.65;;;15.30;99.90;;;;;;5025789;28;20036;-63
2023/05/30 12:47:30;;;;;;;2.08;1.77;;;15.30;99.90;;;;;;5034777;28;20510;-62